Terminal Aerodrome Forecast
Issued by NWS Boston, MA

Home | Current Version | Previous Version | Text Only | Print | Product List | Glossary On
Versions: 1 2 3 4 5 6 7 8 9 10 11 12 13 14 15 16 17 18 19 20 21 22 23 24 25 26 27 28 29 30 31 32 33 34 35 36 37 38 39 40 41 42 43 44 45
000
FTUS41 KBOX 110539
TAFPVD
TAF
KPVD 110539Z 1106/1206 28005KT P6SM SCT045
     FM110700 28005KT P6SM BKN050
     FM111000 29005KT P6SM VCSH BKN060
     FM111300 28009KT P6SM VCSH BKN060
     FM111700 28011G22KT P6SM VCSH BKN035
     FM112000 29014G26KT P6SM VCSH BKN035
     FM112200 29014G28KT P6SM VCSH BKN045
     FM112300 29013G29KT P6SM SCT070=

USA.gov is the U.S. government's official web portal to all federal, state and local government web resources and services.